Time;durP1;ratioP1;P1;durP2;ratioP2;P2;SDS_P1;SDS_P2;PMS_P1;PMS_P2;Temp;Humidity;BMP_temperature;BMP_pressure;BME280_temperature;BME280_humidity;BME280_pressure;Samples;Min_cycle;Max_cycle;Signal;HPM_P1;HPM_P2
2022/11/13 00:01:25;;;;;;;9.75;5.03;;;18.90;1.00;;;;;;4862701;29;20056;-51
2022/11/13 00:04:11;;;;;;;7.20;4.70;;;18.90;1.00;;;;;;4858199;29;20053;-50
2022/11/13 00:06:57;;;;;;;12.45;5.30;;;18.90;1.00;;;;;;4844050;29;20064;-50
2022/11/13 00:09:43;;;;;;;6.95;5.43;;;18.80;1.00;;;;;;4843616;29;20118;-51
2022/11/13 00:12:29;;;;;;;10.70;5.65;;;18.80;1.00;;;;;;4844062;29;20056;-52
2022/11/13 00:15:15;;;;;;;8.63;4.22;;;18.80;1.00;;;;;;4843709;29;20130;-51
2022/11/13 00:18:01;;;;;;;8.70;5.15;;;18.80;1.00;;;;;;4847452;29;20186;-51
2022/11/13 00:20:47;;;;;;;8.80;4.63;;;18.80;1.00;;;;;;4862692;29;20068;-49
2022/11/13 00:23:33;;;;;;;7.72;4.53;;;18.80;1.00;;;;;;4871484;29;20156;-50
2022/11/13 00:26:24;;;;;;;10.70;5.45;;;18.70;1.00;;;;;;4881441;29;20122;-50
2022/11/13 00:29:09;;;;;;;8.27;4.20;;;18.70;1.00;;;;;;4880672;29;20522;-54
2022/11/13 00:31:54;;;;;;;6.97;4.47;;;18.70;1.00;;;;;;4880454;29;20484;-52
2022/11/13 00:34:40;;;;;;;9.77;4.93;;;18.70;1.00;;;;;;4881055;29;20174;-50
2022/11/13 00:37:32;;;;;;;7.25;4.50;;;18.60;1.00;;;;;;4880573;29;20072;-53
2022/11/13 00:40:18;;;;;;;7.70;4.20;;;18.60;1.00;;;;;;4880602;29;20161;-51
2022/11/13 00:43:03;;;;;;;9.57;4.97;;;18.60;1.00;;;;;;4880420;29;20056;-53
2022/11/13 00:45:49;;;;;;;8.55;4.20;;;18.60;1.00;;;;;;4880682;29;20092;-49
2022/11/13 00:48:35;;;;;;;7.75;4.82;;;18.60;1.00;;;;;;4876460;29;20146;-47
2022/11/13 00:51:21;;;;;;;5.45;4.28;;;18.60;1.00;;;;;;4862337;29;20404;-53
2022/11/13 00:54:06;;;;;;;9.90;5.15;;;18.50;1.00;;;;;;4862179;29;20052;-51
2022/11/13 00:56:52;;;;;;;7.38;4.18;;;18.50;1.00;;;;;;4861910;29;20080;-50
2022/11/13 00:59:37;;;;;;;6.32;4.72;;;18.50;1.00;;;;;;4860861;29;20138;-51
2022/11/13 01:02:23;;;;;;;8.38;4.75;;;18.50;1.00;;;;;;4861772;29;20457;-50
2022/11/13 01:05:08;;;;;;;7.75;5.07;;;18.50;1.00;;;;;;4861701;29;20130;-52
2022/11/13 01:07:54;;;;;;;7.75;4.30;;;18.40;1.00;;;;;;4861578;29;20068;-49
2022/11/13 01:10:43;;;;;;;8.68;4.38;;;18.40;1.00;;;;;;4861299;29;20072;-52
2022/11/13 01:13:32;;;;;;;7.75;4.30;;;18.40;1.00;;;;;;4862204;29;20383;-52
2022/11/13 01:16:20;;;;;;;6.97;3.78;;;18.40;1.00;;;;;;4861597;29;20093;-50
2022/11/13 01:19:05;;;;;;;8.93;4.60;;;18.40;1.00;;;;;;4860943;29;20060;-49
2022/11/13 01:21:51;;;;;;;7.05;3.97;;;18.40;1.00;;;;;;4861919;29;20057;-52
2022/11/13 01:24:36;;;;;;;6.13;3.97;;;18.30;1.00;;;;;;4862021;29;20073;-50
2022/11/13 01:27:22;;;;;;;7.80;4.60;;;18.30;1.00;;;;;;4860938;29;20072;-54
2022/11/13 01:30:08;;;;;;;7.65;3.78;;;18.30;1.00;;;;;;4861388;29;20105;-52
2022/11/13 01:32:54;;;;;;;7.80;3.80;;;18.30;1.00;;;;;;4861762;29;20059;-50
2022/11/13 01:35:39;;;;;;;6.70;4.10;;;18.30;1.00;;;;;;4861150;29;20060;-47
2022/11/13 01:38:24;;;;;;;6.20;3.83;;;18.20;1.00;;;;;;4860976;29;20060;-52
2022/11/13 01:41:24;;;;;;;7.05;3.90;;;18.20;1.00;;;;;;4861415;29;20148;-53
2022/11/13 01:44:12;;;;;;;6.97;3.97;;;18.20;1.00;;;;;;4860925;29;20060;-50
2022/11/13 01:46:58;;;;;;;5.47;3.78;;;18.20;1.00;;;;;;4861302;29;20148;-53
2022/11/13 01:49:44;;;;;;;7.97;4.07;;;18.20;1.00;;;;;;4860855;29;20092;-52
2022/11/13 01:52:35;;;;;;;7.32;4.28;;;18.20;1.00;;;;;;4861117;29;20057;-53
2022/11/13 01:55:20;;;;;;;7.18;3.65;;;18.10;1.00;;;;;;4860525;29;20053;-52
2022/11/13 01:58:09;;;;;;;7.32;4.10;;;18.10;1.00;;;;;;4859178;29;20186;-51
2022/11/13 02:00:54;;;;;;;5.78;3.63;;;18.10;1.00;;;;;;4861154;29;20061;-51
2022/11/13 02:03:39;;;;;;;7.88;4.30;;;18.10;1.00;;;;;;4861598;29;20128;-50
2022/11/13 02:06:30;;;;;;;5.57;3.17;;;18.10;1.00;;;;;;4860970;29;20564;-51
2022/11/13 02:09:19;;;;;;;5.82;3.65;;;18.00;1.00;;;;;;4860717;29;20535;-50
2022/11/13 02:12:07;;;;;;;6.03;3.80;;;18.10;1.00;;;;;;4860664;29;20056;-51
2022/11/13 02:14:54;;;;;;;6.78;4.00;;;18.10;1.00;;;;;;4860801;29;20060;-49
2022/11/13 02:17:45;;;;;;;6.43;3.30;;;18.00;1.00;;;;;;4860926;29;20053;-51
2022/11/13 02:20:59;;;;;;;4.95;3.55;;;18.00;1.00;;;;;;4860540;29;20056;-51
2022/11/13 02:24:01;;;;;;;7.15;3.90;;;18.00;1.00;;;;;;4861009;29;20056;-49
2022/11/13 02:26:49;;;;;;;6.18;3.90;;;18.00;1.00;;;;;;4861336;29;20404;-49
2022/11/13 02:29:35;;;;;;;4.85;3.33;;;17.90;1.00;;;;;;4860677;29;20064;-53
2022/11/13 02:32:20;;;;;;;6.13;3.90;;;17.90;1.00;;;;;;4860415;29;20056;-53
2022/11/13 02:35:06;;;;;;;7.95;3.63;;;17.90;1.00;;;;;;4860846;29;20060;-50
2022/11/13 02:37:55;;;;;;;5.57;4.57;;;17.90;1.00;;;;;;4862963;29;20197;-51
2022/11/13 02:40:40;;;;;;;5.90;4.20;;;17.90;1.00;;;;;;4864099;29;20057;-49
2022/11/13 02:43:26;;;;;;;4.80;3.47;;;17.90;1.00;;;;;;4864153;29;20053;-50
2022/11/13 02:46:11;;;;;;;5.97;3.97;;;17.90;1.00;;;;;;4863845;29;20053;-50
2022/11/13 02:48:56;;;;;;;5.55;3.60;;;17.90;1.00;;;;;;4863952;29;20183;-52
2022/11/13 02:51:42;;;;;;;5.57;3.72;;;17.90;1.00;;;;;;4863754;29;20178;-50
2022/11/13 02:54:27;;;;;;;6.60;4.28;;;17.80;1.00;;;;;;4864077;29;20052;-51
2022/11/13 02:57:12;;;;;;;6.20;3.90;;;17.80;1.00;;;;;;4864125;29;20457;-53
2022/11/13 02:59:58;;;;;;;6.28;4.35;;;17.80;1.00;;;;;;4864030;29;20076;-55
2022/11/13 03:02:43;;;;;;;5.47;3.63;;;17.80;1.00;;;;;;4863634;29;20057;-55
2022/11/13 03:05:29;;;;;;;5.93;3.35;;;17.80;1.00;;;;;;4863527;29;20069;-50
2022/11/13 03:08:15;;;;;;;6.45;3.90;;;17.80;1.00;;;;;;4863927;29;20205;-49
2022/11/13 03:11:07;;;;;;;4.57;3.20;;;17.80;1.00;;;;;;4863476;29;20639;-53
2022/11/13 03:13:52;;;;;;;4.90;3.42;;;17.80;1.00;;;;;;4863678;29;20507;-51
2022/11/13 03:16:38;;;;;;;5.07;3.38;;;17.80;1.00;;;;;;4863319;29;20077;-51
2022/11/13 03:19:23;;;;;;;5.05;3.70;;;17.70;1.00;;;;;;4863026;29;20633;-50
2022/11/13 03:22:09;;;;;;;5.63;3.78;;;17.70;1.00;;;;;;4863513;29;20424;-47
2022/11/13 03:24:54;;;;;;;5.05;3.33;;;17.70;1.00;;;;;;4864014;29;20456;-50
2022/11/13 03:27:39;;;;;;;5.32;3.72;;;17.70;1.00;;;;;;4863458;29;20113;-51
2022/11/13 03:30:26;;;;;;;7.88;3.92;;;17.70;1.00;;;;;;4862864;29;20562;-51
2022/11/13 03:33:11;;;;;;;6.47;3.70;;;17.70;1.00;;;;;;4863858;29;20061;-52
2022/11/13 03:35:57;;;;;;;6.07;4.10;;;17.70;1.00;;;;;;4863247;29;20080;-48
2022/11/13 03:38:42;;;;;;;4.38;3.10;;;17.70;1.00;;;;;;4863018;29;20064;-50
2022/11/13 03:41:28;;;;;;;4.93;3.38;;;17.70;1.00;;;;;;4863485;29;20064;-48
2022/11/13 03:44:13;;;;;;;9.05;3.55;;;17.60;1.00;;;;;;4863224;29;20416;-49
2022/11/13 03:46:58;;;;;;;6.03;3.47;;;17.60;1.00;;;;;;4863082;29;20174;-51
2022/11/13 03:49:44;;;;;;;5.03;3.58;;;17.60;1.00;;;;;;4861704;29;20060;-50
2022/11/13 03:52:29;;;;;;;6.40;3.75;;;17.60;1.00;;;;;;4863204;29;20056;-52
2022/11/13 03:55:15;;;;;;;6.68;3.72;;;17.60;1.00;;;;;;4862980;29;20518;-50
2022/11/13 03:58:00;;;;;;;4.57;3.38;;;17.60;1.00;;;;;;4862837;29;20057;-50
2022/11/13 04:00:48;;;;;;;5.60;3.47;;;17.60;1.00;;;;;;4862515;29;20087;-52
2022/11/13 04:03:33;;;;;;;6.00;3.90;;;17.60;1.00;;;;;;4862733;29;20051;-51
2022/11/13 04:06:18;;;;;;;5.35;3.63;;;17.60;1.00;;;;;;4862985;29;20083;-53
2022/11/13 04:09:04;;;;;;;5.13;3.45;;;17.60;1.00;;;;;;4862034;29;20064;-50
2022/11/13 04:11:49;;;;;;;6.20;3.33;;;17.50;1.00;;;;;;4862406;29;20526;-52
2022/11/13 04:14:35;;;;;;;5.25;3.63;;;17.50;1.00;;;;;;4862419;29;20448;-49
2022/11/13 04:17:20;;;;;;;6.13;3.78;;;17.50;1.00;;;;;;4862964;29;20061;-48
2022/11/13 04:20:07;;;;;;;5.40;3.22;;;17.50;1.00;;;;;;4861830;29;20521;-48
2022/11/13 04:22:54;;;;;;;5.00;3.22;;;17.50;1.00;;;;;;4862413;29;20060;-50
2022/11/13 04:25:39;;;;;;;4.40;3.97;;;17.50;1.00;;;;;;4862199;29;20052;-49
2022/11/13 04:28:24;;;;;;;6.55;3.88;;;17.50;1.00;;;;;;4862057;29;20060;-50
2022/11/13 04:31:11;;;;;;;6.60;3.35;;;17.40;1.00;;;;;;4862019;29;20157;-48
2022/11/13 04:33:56;;;;;;;4.20;2.95;;;17.50;1.00;;;;;;4862419;29;20052;-48
2022/11/13 04:36:41;;;;;;;5.05;2.95;;;17.50;1.00;;;;;;4873921;29;20052;-53
2022/11/13 04:39:27;;;;;;;3.88;3.22;;;17.50;1.00;;;;;;4861761;29;20448;-53
2022/11/13 04:45:20;;;;;;;5.68;3.40;;;17.50;1.00;;;;;;4861865;29;20096;-52
2022/11/13 04:48:06;;;;;;;4.43;3.05;;;17.40;1.00;;;;;;4861943;29;20056;-49
2022/11/13 04:50:51;;;;;;;6.60;3.28;;;17.40;1.00;;;;;;4861359;29;20102;-51
2022/11/13 04:53:37;;;;;;;5.72;2.85;;;17.40;1.00;;;;;;4861851;29;20053;-52
2022/11/13 04:56:22;;;;;;;4.60;3.25;;;17.40;1.00;;;;;;4861507;29;20052;-52
2022/11/13 04:59:08;;;;;;;5.13;3.33;;;17.40;1.00;;;;;;4861451;29;20059;-53
2022/11/13 05:01:54;;;;;;;4.10;3.30;;;17.40;1.00;;;;;;4861732;29;20563;-49
2022/11/13 05:04:39;;;;;;;5.32;3.13;;;17.40;1.00;;;;;;4861498;29;20061;-54
2022/11/13 05:07:25;;;;;;;4.90;3.58;;;17.40;1.00;;;;;;4861353;29;20060;-53
2022/11/13 05:10:10;;;;;;;4.97;3.17;;;17.30;1.00;;;;;;4861233;29;20059;-54
2022/11/13 05:12:56;;;;;;;5.55;3.53;;;17.30;1.00;;;;;;4861819;29;20056;-48
2022/11/13 05:15:41;;;;;;;4.70;3.42;;;17.30;1.00;;;;;;4861956;29;20052;-52
2022/11/13 05:18:27;;;;;;;6.13;3.20;;;17.30;1.00;;;;;;4861104;29;20424;-50
2022/11/13 05:21:13;;;;;;;4.22;3.13;;;17.30;1.00;;;;;;4861669;29;20408;-49
2022/11/13 05:23:58;;;;;;;4.28;3.08;;;17.30;1.00;;;;;;4861333;29;20098;-52
2022/11/13 05:26:43;;;;;;;4.60;3.45;;;17.30;1.00;;;;;;4861709;29;20404;-48
2022/11/13 05:29:29;;;;;;;5.50;3.30;;;17.30;1.00;;;;;;4860742;29;20056;-51
2022/11/13 05:32:14;;;;;;;9.05;3.95;;;17.30;1.00;;;;;;4861005;29;20592;-55
2022/11/13 05:35:00;;;;;;;6.15;3.97;;;17.30;1.00;;;;;;4861449;29;20132;-53
2022/11/13 05:37:45;;;;;;;5.65;3.50;;;17.30;1.00;;;;;;4861026;29;20580;-53
2022/11/13 05:40:30;;;;;;;4.40;2.92;;;17.30;1.00;;;;;;4860615;29;20064;-53
2022/11/13 05:43:16;;;;;;;4.45;2.95;;;17.30;1.00;;;;;;4861090;29;20055;-48
2022/11/13 05:46:09;;;;;;;7.43;3.88;;;17.30;1.00;;;;;;4861226;29;20060;-49
2022/11/13 05:48:57;;;;;;;5.20;3.53;;;17.30;1.00;;;;;;4859859;29;20066;-47
2022/11/13 05:51:42;;;;;;;6.40;3.38;;;17.30;1.00;;;;;;4861055;29;20565;-50
2022/11/13 05:54:28;;;;;;;8.38;3.25;;;17.20;1.00;;;;;;4861131;29;20065;-50
2022/11/13 05:57:13;;;;;;;4.32;3.58;;;17.20;1.00;;;;;;4860899;29;20056;-49
2022/11/13 05:59:58;;;;;;;5.15;2.88;;;17.20;1.00;;;;;;4860800;29;20411;-49
2022/11/13 06:02:44;;;;;;;6.32;3.65;;;17.20;1.00;;;;;;4861349;29;20193;-50
2022/11/13 06:05:29;;;;;;;6.25;4.18;;;17.20;1.00;;;;;;4861354;29;20170;-51
2022/11/13 06:08:15;;;;;;;6.63;3.45;;;17.20;1.00;;;;;;4861286;29;20399;-52
2022/11/13 06:11:02;;;;;;;6.05;3.88;;;17.20;1.00;;;;;;4860906;29;20194;-52
2022/11/13 06:13:49;;;;;;;4.10;3.45;;;17.20;1.00;;;;;;4864919;29;20061;-52
2022/11/13 06:16:37;;;;;;;4.70;3.58;;;17.20;1.00;;;;;;4864940;29;20121;-50
2022/11/13 06:19:22;;;;;;;5.30;2.90;;;17.20;1.00;;;;;;4864024;29;20060;-51
2022/11/13 06:22:07;;;;;;;5.15;4.15;;;17.20;1.00;;;;;;4864330;29;20128;-51
2022/11/13 06:24:53;;;;;;;6.93;3.30;;;17.20;1.00;;;;;;4864445;29;20118;-48
2022/11/13 06:27:38;;;;;;;6.40;3.60;;;17.20;1.00;;;;;;4864175;29;20053;-50
2022/11/13 06:30:23;;;;;;;4.53;3.10;;;17.10;1.00;;;;;;4864182;29;20105;-51
2022/11/13 06:33:09;;;;;;;6.47;3.38;;;17.10;1.00;;;;;;4864107;29;20522;-53
2022/11/13 06:35:54;;;;;;;5.20;3.50;;;17.10;1.00;;;;;;4864759;29;20157;-52
2022/11/13 06:38:41;;;;;;;5.25;3.80;;;17.10;1.00;;;;;;4863697;29;20115;-52
2022/11/13 06:41:30;;;;;;;4.55;3.15;;;17.10;1.00;;;;;;4864588;29;20069;-49
2022/11/13 06:44:15;;;;;;;4.75;3.50;;;17.10;1.00;;;;;;4863904;29;20156;-54
2022/11/13 06:47:01;;;;;;;4.75;3.40;;;17.10;1.00;;;;;;4862013;29;20548;-53
2022/11/13 06:49:46;;;;;;;5.10;3.17;;;17.10;1.00;;;;;;4855059;29;20060;-54
2022/11/13 06:52:32;;;;;;;6.63;4.05;;;17.10;1.00;;;;;;4855048;29;20156;-51
2022/11/13 06:55:18;;;;;;;9.27;4.20;;;17.10;1.00;;;;;;4860930;29;20419;-51
2022/11/13 06:58:04;;;;;;;7.35;3.30;;;17.10;1.00;;;;;;4855941;29;20061;-54
2022/11/13 07:00:49;;;;;;;5.97;4.13;;;17.10;1.00;;;;;;4855219;29;20052;-51
2022/11/13 07:03:35;;;;;;;6.60;4.03;;;17.00;1.00;;;;;;4859803;29;20072;-53
2022/11/13 07:06:22;;;;;;;3.58;2.85;;;17.00;1.00;;;;;;4863459;29;20597;-50
2022/11/13 07:09:08;;;;;;;7.43;3.85;;;17.00;1.00;;;;;;4863049;29;20529;-53
2022/11/13 07:11:53;;;;;;;5.25;3.30;;;17.00;1.00;;;;;;4863556;29;20132;-53
2022/11/13 07:14:38;;;;;;;4.45;3.42;;;17.00;1.00;;;;;;4863902;29;20132;-48
2022/11/13 07:17:24;;;;;;;5.63;3.60;;;17.00;1.00;;;;;;4863739;29;20392;-50
2022/11/13 07:20:10;;;;;;;5.10;2.95;;;17.00;1.00;;;;;;4863378;29;20064;-48
2022/11/13 07:22:56;;;;;;;4.43;3.47;;;17.00;1.00;;;;;;4862807;29;20129;-51
2022/11/13 07:25:42;;;;;;;6.32;3.97;;;17.00;1.00;;;;;;4862936;29;20102;-49
2022/11/13 07:28:30;;;;;;;5.82;3.85;;;17.00;1.00;;;;;;4863134;29;20132;-52
2022/11/13 07:31:16;;;;;;;6.20;3.63;;;17.00;1.00;;;;;;4862850;29;20137;-51
2022/11/13 07:34:01;;;;;;;4.88;3.35;;;17.00;1.00;;;;;;4863033;29;20411;-52
2022/11/13 07:36:47;;;;;;;4.65;3.20;;;17.00;1.00;;;;;;4863238;29;20523;-47
2022/11/13 07:39:32;;;;;;;8.75;3.63;;;17.00;1.00;;;;;;4862883;29;20059;-50
2022/11/13 07:42:18;;;;;;;6.15;3.63;;;16.90;1.00;;;;;;4862876;29;20114;-50
2022/11/13 07:45:04;;;;;;;5.75;3.25;;;16.90;1.00;;;;;;4863244;29;20400;-51
2022/11/13 07:47:49;;;;;;;4.22;3.20;;;16.90;1.00;;;;;;4862679;29;20064;-52
2022/11/13 07:50:37;;;;;;;4.88;3.17;;;16.90;1.00;;;;;;4862444;29;20056;-51
2022/11/13 07:53:22;;;;;;;9.50;6.70;;;16.90;1.00;;;;;;4862781;29;20060;-52
2022/11/13 07:56:08;;;;;;;14.75;8.00;;;16.90;1.00;;;;;;4860313;29;20132;-52
2022/11/13 07:58:53;;;;;;;16.65;9.15;;;16.80;1.00;;;;;;4862281;29;20181;-52
2022/11/13 08:01:39;;;;;;;12.25;7.55;;;16.70;1.00;;;;;;4863014;29;20064;-54
2022/11/13 08:04:24;;;;;;;11.32;8.15;;;16.70;1.00;;;;;;4862847;29;20514;-54
2022/11/13 08:07:11;;;;;;;10.60;7.10;;;16.70;1.00;;;;;;4862641;29;20063;-50
2022/11/13 08:09:57;;;;;;;12.88;7.57;;;16.70;1.00;;;;;;4862471;29;20194;-52
2022/11/13 08:12:44;;;;;;;12.05;6.65;;;16.70;1.00;;;;;;4862385;29;20094;-49
2022/11/13 08:15:30;;;;;;;16.13;6.88;;;16.80;1.00;;;;;;4862343;29;20060;-48
2022/11/13 08:18:15;;;;;;;11.55;7.00;;;16.80;1.00;;;;;;4862449;29;20392;-49
2022/11/13 08:21:02;;;;;;;12.07;6.05;;;16.80;1.00;;;;;;4862532;29;20064;-50
2022/11/13 08:23:49;;;;;;;12.48;7.20;;;16.80;1.00;;;;;;4843976;29;20423;-55
2022/11/13 08:26:37;;;;;;;15.00;5.60;;;16.80;1.00;;;;;;4843777;29;20057;-54
2022/11/13 08:29:22;;;;;;;15.65;6.45;;;16.80;1.00;;;;;;4855223;29;20056;-54
2022/11/13 08:32:08;;;;;;;9.30;5.43;;;16.80;1.00;;;;;;4843543;29;20404;-53
2022/11/13 08:34:53;;;;;;;37.75;6.65;;;16.80;1.00;;;;;;4850434;29;20075;-54
2022/11/13 08:37:39;;;;;;;17.45;6.28;;;16.80;1.00;;;;;;4880646;29;20064;-53
2022/11/13 08:40:24;;;;;;;7.53;4.63;;;16.80;1.00;;;;;;4879820;29;20072;-56
2022/11/13 08:43:09;;;;;;;8.02;4.65;;;16.80;1.00;;;;;;4880291;29;20063;-54
2022/11/13 08:45:55;;;;;;;8.45;5.07;;;16.80;1.00;;;;;;4880977;29;20116;-56
2022/11/13 08:48:40;;;;;;;9.02;4.82;;;16.80;1.00;;;;;;4879696;29;20133;-55
2022/11/13 08:51:25;;;;;;;7.00;4.65;;;16.80;1.00;;;;;;4880572;29;20060;-56
2022/11/13 08:54:11;;;;;;;6.35;5.30;;;16.80;1.00;;;;;;4880105;29;20055;-51
2022/11/13 08:56:56;;;;;;;12.65;4.72;;;16.80;1.00;;;;;;4880672;29;20069;-56
2022/11/13 08:59:49;;;;;;;7.35;3.70;;;16.80;1.00;;;;;;4880062;29;20052;-54
2022/11/13 09:02:34;;;;;;;12.15;4.40;;;16.80;1.00;;;;;;4880009;29;20056;-54
2022/11/13 09:05:20;;;;;;;5.82;3.95;;;16.80;1.00;;;;;;4880075;29;20072;-55
2022/11/13 09:08:05;;;;;;;11.65;4.68;;;16.80;1.00;;;;;;4879989;29;20112;-53
2022/11/13 09:10:51;;;;;;;6.55;3.65;;;16.80;1.00;;;;;;4880129;29;20060;-52
2022/11/13 09:13:36;;;;;;;7.97;3.88;;;16.80;1.00;;;;;;4879816;29;20056;-57
2022/11/13 09:16:29;;;;;;;9.53;4.43;;;16.80;1.00;;;;;;4879938;29;20188;-49
2022/11/13 09:19:14;;;;;;;6.57;3.45;;;16.70;1.00;;;;;;4861160;29;20271;-53
2022/11/13 09:22:00;;;;;;;4.95;3.05;;;16.70;1.00;;;;;;4861756;29;20061;-52
2022/11/13 09:24:46;;;;;;;8.23;4.63;;;16.80;1.00;;;;;;4861492;29;20518;-53
2022/11/13 09:27:31;;;;;;;6.85;3.85;;;16.80;1.00;;;;;;4861166;29;20464;-51
2022/11/13 09:30:16;;;;;;;13.07;3.83;;;16.80;1.00;;;;;;4861260;29;20080;-53
2022/11/13 09:33:02;;;;;;;10.50;4.15;;;16.80;1.00;;;;;;4860934;29;20529;-50
2022/11/13 09:35:48;;;;;;;8.70;3.60;;;16.80;1.00;;;;;;4846427;29;20142;-50
2022/11/13 09:38:33;;;;;;;5.47;3.85;;;16.80;1.00;;;;;;4842549;29;20106;-53
2022/11/13 09:41:21;;;;;;;5.90;3.60;;;16.80;1.00;;;;;;4842985;29;20198;-50
2022/11/13 09:44:30;;;;;;;6.18;3.92;;;16.80;1.00;;;;;;4842550;29;20070;-49
2022/11/13 09:47:31;;;;;;;13.32;3.15;;;16.90;1.00;;;;;;4841848;29;20121;-51
2022/11/13 09:50:20;;;;;;;15.05;3.20;;;16.90;1.00;;;;;;4842482;29;20412;-52
2022/11/13 09:53:05;;;;;;;5.57;3.20;;;16.90;1.00;;;;;;4842136;29;20057;-52
2022/11/13 09:56:05;;;;;;;3.90;2.90;;;16.90;1.00;;;;;;4842745;29;20516;-53
2022/11/13 09:59:00;;;;;;;9.57;2.70;;;17.00;1.00;;;;;;4842416;29;20138;-55
2022/11/13 10:01:54;;;;;;;7.25;3.08;;;17.00;1.00;;;;;;4847944;29;20090;-52
2022/11/13 10:04:56;;;;;;;6.25;2.63;;;17.10;1.00;;;;;;4842303;29;20068;-50
2022/11/13 10:08:20;;;;;;;9.02;2.95;;;17.20;1.00;;;;;;4843108;29;20057;-55
2022/11/13 10:11:13;;;;;;;8.90;3.00;;;17.40;1.00;;;;;;4842662;29;20103;-54
2022/11/13 10:14:07;;;;;;;8.10;4.20;;;17.70;1.00;;;;;;4845406;29;20519;-56
2022/11/13 10:17:23;;;;;;;6.25;3.03;;;17.90;1.00;;;;;;4861177;29;20186;-52
2022/11/13 10:20:19;;;;;;;9.93;3.00;;;18.30;1.00;;;;;;4860345;29;20060;-53
2022/11/13 10:23:18;;;;;;;6.07;2.15;;;18.60;1.00;;;;;;4860920;29;20531;-49
2022/11/13 10:26:17;;;;;;;7.90;2.25;;;19.00;1.00;;;;;;4860565;29;20069;-53
2022/11/13 10:29:13;;;;;;;4.93;2.15;;;19.40;1.00;;;;;;4850149;29;20093;-51
2022/11/13 10:32:13;;;;;;;3.47;2.20;;;19.80;1.00;;;;;;4851256;29;20060;-50
2022/11/13 10:35:03;;;;;;;3.80;2.60;;;20.00;1.00;;;;;;4858744;29;20123;-52
2022/11/13 10:38:10;;;;;;;2.75;1.88;;;20.40;1.00;;;;;;4860058;29;20538;-50
2022/11/13 10:41:12;;;;;;;6.07;2.13;;;20.60;1.00;;;;;;4852988;29;20064;-49
2022/11/13 10:44:01;;;;;;;2.75;1.70;;;20.90;1.00;;;;;;4854475;29;20393;-50
2022/11/13 10:46:46;;;;;;;5.72;2.25;;;21.10;1.00;;;;;;4845875;29;20056;-53
2022/11/13 10:49:32;;;;;;;3.88;2.03;;;21.30;1.00;;;;;;4851665;29;20559;-48
2022/11/13 10:52:26;;;;;;;7.13;2.33;;;21.50;1.00;;;;;;4852294;29;20060;-51
2022/11/13 10:55:23;;;;;;;8.15;1.95;;;21.70;1.00;;;;;;4860857;29;20628;-51
2022/11/13 10:58:13;;;;;;;3.83;1.50;;;21.70;1.00;;;;;;4861227;29;20412;-52
2022/11/13 11:00:58;;;;;;;17.75;3.25;;;21.90;1.00;;;;;;4864449;29;20133;-53
2022/11/13 11:03:49;;;;;;;12.50;1.92;;;22.00;1.00;;;;;;4863550;29;20132;-52
2022/11/13 11:06:36;;;;;;;2.38;1.67;;;22.10;1.00;;;;;;4863312;29;20064;-51
2022/11/13 11:09:45;;;;;;;2.35;1.85;;;22.20;1.00;;;;;;4863385;29;20068;-52
2022/11/13 11:12:31;;;;;;;7.32;1.95;;;22.20;1.00;;;;;;4863445;29;20163;-49
2022/11/13 11:15:46;;;;;;;5.93;2.08;;;22.20;1.00;;;;;;4863833;29;20416;-49
2022/11/13 11:18:43;;;;;;;4.72;2.00;;;22.30;1.00;;;;;;4863246;29;20403;-52
2022/11/13 11:21:32;;;;;;;5.35;1.98;;;22.20;1.00;;;;;;4863298;29;20094;-51
2022/11/13 11:24:27;;;;;;;6.05;1.98;;;22.20;1.00;;;;;;4863464;29;20453;-51
2022/11/13 11:27:24;;;;;;;8.77;3.70;;;22.20;1.00;;;;;;4862539;29;20056;-52
2022/11/13 11:30:21;;;;;;;6.50;2.28;;;22.20;1.00;;;;;;4862892;29;20060;-50
2022/11/13 11:33:30;;;;;;;7.93;2.35;;;22.20;1.00;;;;;;4862602;29;20102;-52
2022/11/13 11:36:31;;;;;;;6.30;2.13;;;22.20;1.00;;;;;;4863119;29;20132;-53
2022/11/13 11:39:45;;;;;;;6.47;2.15;;;22.10;1.00;;;;;;4862648;29;20064;-50
2022/11/13 11:42:49;;;;;;;7.85;2.55;;;22.10;1.00;;;;;;4862861;29;20060;-51
2022/11/13 11:45:42;;;;;;;6.57;2.17;;;22.00;1.00;;;;;;4863312;29;20097;-52
2022/11/13 11:48:32;;;;;;;5.75;2.03;;;22.00;1.00;;;;;;4862896;29;20063;-54
2022/11/13 11:51:20;;;;;;;2.35;1.80;;;22.00;1.00;;;;;;4862954;29;20522;-52
2022/11/13 11:54:24;;;;;;;3.65;2.10;;;21.90;1.00;;;;;;4862702;29;20052;-50
2022/11/13 11:57:30;;;;;;;;;;;21.80;1.00;;;;;;4863174;29;20076;-45
2022/11/13 12:00:19;;;;;;;6.72;1.58;;;21.70;1.00;;;;;;4862523;29;19934;-52
2022/11/13 12:03:37;;;;;;;4.07;1.90;;;21.70;1.00;;;;;;4862858;29;20060;-48
2022/11/13 12:06:33;;;;;;;2.75;1.83;;;21.60;1.00;;;;;;4862509;29;20060;-51
2022/11/13 12:09:30;;;;;;;7.68;2.08;;;21.60;1.00;;;;;;4861993;29;20432;-52
2022/11/13 12:12:18;;;;;;;4.03;1.92;;;21.50;1.00;;;;;;4862663;29;20052;-54
2022/11/13 12:15:05;;;;;;;3.80;2.30;;;21.50;1.00;;;;;;4862509;29;20141;-53
2022/11/13 12:18:09;;;;;;;4.25;2.13;;;21.40;1.00;;;;;;4862155;29;20060;-53
2022/11/13 12:21:07;;;;;;;;;;;21.40;1.00;;;;;;4863017;29;20048;-50
2022/11/13 12:24:19;;;;;;;5.32;1.80;;;21.30;1.00;;;;;;4862122;29;19934;-51
2022/11/13 12:27:47;;;;;;;6.68;1.92;;;21.20;1.00;;;;;;4862593;29;20056;-51
2022/11/13 12:30:48;;;;;;;3.35;2.25;;;21.20;1.00;;;;;;4862116;29;20061;-52
2022/11/13 12:34:00;;;;;;;3.88;1.80;;;21.10;1.00;;;;;;4862097;29;20061;-52
2022/11/13 12:36:47;;;;;;;4.23;1.70;;;21.10;1.00;;;;;;4862707;29;20102;-52
2022/11/13 12:39:42;;;;;;;4.60;1.90;;;21.00;1.00;;;;;;4861545;29;20600;-52
2022/11/13 12:42:43;;;;;;;2.28;1.95;;;21.00;1.00;;;;;;4861928;29;20110;-51
2022/11/13 12:45:49;;;;;;;4.50;2.65;;;20.90;1.00;;;;;;4862040;29;20132;-48
2022/11/13 12:48:37;;;;;;;5.55;1.95;;;20.90;1.00;;;;;;4861526;29;20589;-48
2022/11/13 12:51:23;;;;;;;2.10;1.70;;;20.80;1.00;;;;;;4862098;29;20068;-54
2022/11/13 12:54:09;;;;;;;2.30;1.83;;;20.80;1.00;;;;;;4861699;29;20123;-54
2022/11/13 12:57:12;;;;;;;3.72;1.92;;;20.70;1.00;;;;;;4861792;29;20110;-52
2022/11/13 13:00:10;;;;;;;;;;;20.70;1.00;;;;;;4861387;29;20114;-53
2022/11/13 13:03:14;;;;;;;3.53;1.90;;;20.70;1.00;;;;;;4861723;29;19953;-56
2022/11/13 13:06:13;;;;;;;3.20;2.20;;;20.60;1.00;;;;;;4861951;29;20129;-52
2022/11/13 13:09:28;;;;;;;3.53;2.03;;;20.50;1.00;;;;;;4860997;29;20487;-56
2022/11/13 13:12:58;;;;;;;2.55;1.90;;;20.50;1.00;;;;;;4861320;29;20115;-48
2022/11/13 13:15:52;;;;;;;2.67;1.98;;;20.40;1.00;;;;;;4812887;29;20052;-54
2022/11/13 13:18:38;;;;;;;3.60;2.22;;;20.40;1.00;;;;;;4861255;29;20396;-50
2022/11/13 13:21:24;;;;;;;5.35;2.08;;;20.40;1.00;;;;;;4860624;29;20052;-52
2022/11/13 13:24:28;;;;;;;3.55;1.85;;;20.30;1.00;;;;;;4861612;29;20068;-51
2022/11/13 13:27:21;;;;;;;3.22;2.20;;;20.30;1.00;;;;;;4861390;29;20097;-52
2022/11/13 13:30:27;;;;;;;3.70;2.15;;;20.20;1.00;;;;;;4861111;29;20064;-49
2022/11/13 13:33:30;;;;;;;4.20;2.30;;;20.20;1.00;;;;;;4861363;29;20404;-52
2022/11/13 13:36:35;;;;;;;2.38;1.70;;;20.10;1.00;;;;;;4861573;29;20048;-53
2022/11/13 13:39:51;;;;;;;2.92;2.17;;;20.10;1.00;;;;;;4861270;29;20056;-50
2022/11/13 13:42:54;;;;;;;3.70;2.20;;;20.10;1.00;;;;;;4861036;29;20142;-54
2022/11/13 13:45:57;;;;;;;3.25;2.28;;;20.00;1.00;;;;;;4861901;29;20595;-54
2022/11/13 13:48:46;;;;;;;3.63;2.20;;;20.00;1.00;;;;;;4860609;29;20123;-54
2022/11/13 13:51:44;;;;;;;2.65;2.00;;;19.90;1.00;;;;;;4861220;29;20600;-54
2022/11/13 13:54:33;;;;;;;4.25;2.60;;;19.90;1.00;;;;;;4860840;29;20415;-53
2022/11/13 13:57:19;;;;;;;3.25;2.95;;;19.90;1.00;;;;;;4861397;29;20388;-54
2022/11/13 14:00:12;;;;;;;7.18;2.75;;;19.90;1.00;;;;;;4860438;29;20052;-51
2022/11/13 14:02:58;;;;;;;2.88;2.17;;;19.80;1.00;;;;;;4861336;29;20056;-52
2022/11/13 14:05:43;;;;;;;3.53;2.40;;;19.80;1.00;;;;;;4861086;29;20102;-53
2022/11/13 14:08:29;;;;;;;4.05;2.60;;;19.80;1.00;;;;;;4861270;29;20400;-53
2022/11/13 14:11:28;;;;;;;3.20;2.30;;;19.80;1.00;;;;;;4860779;29;20141;-51
2022/11/13 14:14:20;;;;;;;2.65;1.85;;;19.70;1.00;;;;;;4860699;29;20072;-53
2022/11/13 14:17:07;;;;;;;5.25;2.88;;;19.70;1.00;;;;;;4861037;29;20057;-51
2022/11/13 14:19:54;;;;;;;4.15;2.53;;;19.70;1.00;;;;;;4860798;29;20060;-52
2022/11/13 14:22:43;;;;;;;2.83;2.00;;;19.60;1.00;;;;;;4860884;29;20527;-51
2022/11/13 14:25:28;;;;;;;3.70;2.58;;;19.60;1.00;;;;;;4860945;29;20171;-52
2022/11/13 14:28:17;;;;;;;4.18;2.42;;;19.60;1.00;;;;;;4860306;29;20152;-53
2022/11/13 14:31:09;;;;;;;2.92;2.15;;;19.60;1.00;;;;;;4860751;29;20097;-53
2022/11/13 14:33:55;;;;;;;3.22;2.58;;;19.50;1.00;;;;;;4862620;29;20567;-54
2022/11/13 14:36:41;;;;;;;4.03;2.15;;;19.50;1.00;;;;;;4864214;29;20052;-49
2022/11/13 14:39:30;;;;;;;2.90;2.25;;;19.50;1.00;;;;;;4863672;29;20060;-52
2022/11/13 14:42:36;;;;;;;3.42;2.08;;;19.40;1.00;;;;;;4864755;29;20069;-50
2022/11/13 14:45:22;;;;;;;3.28;2.35;;;19.40;1.00;;;;;;4864244;29;20416;-52
2022/11/13 14:48:32;;;;;;;3.90;2.08;;;19.40;1.00;;;;;;4864165;29;20060;-51
2022/11/13 14:51:25;;;;;;;3.70;2.75;;;19.30;1.00;;;;;;4863935;29;20530;-50
2022/11/13 14:54:27;;;;;;;5.28;2.30;;;19.30;1.00;;;;;;4864223;29;20419;-48
2022/11/13 14:57:25;;;;;;;3.30;2.38;;;19.30;1.00;;;;;;4864091;29;20101;-50
2022/11/13 15:00:32;;;;;;;4.65;1.95;;;19.30;1.00;;;;;;4864007;29;20052;-51